createdAt,value
2022-10-27T00:01:52.129Z,81.40
2022-10-27T00:04:57.933Z,81.53
2022-10-27T00:08:03.301Z,81.64
2022-10-27T00:11:18.402Z,81.54
2022-10-27T00:14:26.059Z,81.33
2022-10-27T00:17:32.678Z,81.12
2022-10-27T00:20:38.651Z,81.06
2022-10-27T00:23:45.001Z,80.90
2022-10-27T00:26:50.692Z,80.76
2022-10-27T00:29:56.842Z,81.87
2022-10-27T00:33:02.270Z,81.99
2022-10-27T00:36:08.074Z,82.05
2022-10-27T00:39:13.718Z,81.99
2022-10-27T00:42:20.159Z,81.92
2022-10-27T00:45:26.509Z,81.97
2022-10-27T00:48:32.941Z,81.94
2022-10-27T00:51:38.969Z,81.47
2022-10-27T00:54:45.419Z,81.10
2022-10-27T00:57:52.973Z,81.19
2022-10-27T01:00:59.006Z,80.95
2022-10-27T01:04:04.263Z,80.65
2022-10-27T01:07:10.508Z,79.94
2022-10-27T01:10:16.333Z,79.57
2022-10-27T01:13:22.261Z,79.49
2022-10-27T01:17:00.768Z,78.33
2022-10-27T01:20:44.192Z,78.00
2022-10-27T01:24:31.310Z,79.10
2022-10-27T01:28:09.773Z,79.13
2022-10-27T01:31:29.393Z,78.81
2022-10-27T01:34:52.991Z,78.78
2022-10-27T01:38:16.326Z,78.94
2022-10-27T01:41:32.290Z,79.29
2022-10-27T01:44:50.417Z,78.85
2022-10-27T01:47:56.665Z,79.18
2022-10-27T01:51:02.559Z,79.77
2022-10-27T01:54:09.286Z,79.85
2022-10-27T01:57:44.447Z,79.42
2022-10-27T02:01:09.022Z,79.54
2022-10-27T02:04:44.253Z,79.83
2022-10-27T02:08:19.270Z,79.95
2022-10-27T02:11:25.594Z,80.12
2022-10-27T02:14:30.866Z,79.56
2022-10-27T02:17:36.781Z,79.81
2022-10-27T02:20:44.392Z,78.83
2022-10-27T02:23:50.146Z,79.32
2022-10-27T02:27:04.546Z,79.19
2022-10-27T02:30:10.354Z,79.35
2022-10-27T02:33:17.153Z,79.43
2022-10-27T02:36:23.571Z,79.26
2022-10-27T02:39:30.894Z,79.10
2022-10-27T02:42:37.401Z,78.89
2022-10-27T02:45:43.667Z,80.00
2022-10-27T02:48:49.457Z,80.62
2022-10-27T02:51:56.310Z,80.99
2022-10-27T02:55:02.963Z,81.11
2022-10-27T02:58:09.460Z,81.35
2022-10-27T03:01:08.518Z,81.11
2022-10-27T03:04:14.147Z,81.21
2022-10-27T03:07:19.784Z,81.23
2022-10-27T03:10:26.304Z,81.92
2022-10-27T03:13:32.427Z,82.83
2022-10-27T03:16:38.361Z,83.64
2022-10-27T03:19:44.114Z,84.18
2022-10-27T03:22:52.550Z,84.86
2022-10-27T03:26:00.231Z,84.00
2022-10-27T03:29:06.346Z,83.92
2022-10-27T03:32:11.917Z,83.72
2022-10-27T03:35:19.395Z,82.73
2022-10-27T03:38:26.389Z,82.54
2022-10-27T03:41:32.952Z,83.20
2022-10-27T03:44:39.514Z,82.52
2022-10-27T03:47:45.804Z,82.48
2022-10-27T03:50:51.674Z,82.41
2022-10-27T03:53:57.838Z,82.58
2022-10-27T03:57:04.341Z,82.72
2022-10-27T04:00:10.139Z,82.93
2022-10-27T04:03:16.123Z,83.71
2022-10-27T04:06:20.890Z,84.35
2022-10-27T04:09:27.423Z,84.25
2022-10-27T04:12:32.829Z,83.72
2022-10-27T04:15:40.336Z,83.10
2022-10-27T04:18:45.475Z,83.09
2022-10-27T04:21:51.104Z,82.90
2022-10-27T04:24:58.071Z,82.70
2022-10-27T04:28:04.710Z,82.74
2022-10-27T04:31:13.000Z,83.21
2022-10-27T04:34:18.885Z,83.39
2022-10-27T04:37:24.451Z,84.21
2022-10-27T04:40:30.147Z,84.45
2022-10-27T04:43:35.886Z,84.82
2022-10-27T04:46:40.994Z,85.27
2022-10-27T04:49:47.209Z,85.70
2022-10-27T04:52:53.396Z,85.63
2022-10-27T04:55:59.411Z,85.32
2022-10-27T04:59:05.921Z,85.37
2022-10-27T05:02:11.461Z,85.40
2022-10-27T05:05:17.614Z,85.31
2022-10-27T05:08:24.384Z,84.82
2022-10-27T05:11:31.109Z,84.10
2022-10-27T05:14:38.820Z,83.29
2022-10-27T05:17:44.120Z,83.58
2022-10-27T05:20:49.957Z,83.06
2022-10-27T05:23:55.826Z,82.84
2022-10-27T05:27:04.029Z,81.93
2022-10-27T05:30:10.852Z,82.51
2022-10-27T05:33:17.345Z,82.74
2022-10-27T05:36:22.525Z,82.70
2022-10-27T05:39:29.253Z,82.23
2022-10-27T05:42:28.132Z,81.78
2022-10-27T05:45:33.458Z,80.84
2022-10-27T05:48:38.679Z,80.24
2022-10-27T05:51:44.119Z,79.64
2022-10-27T05:54:49.611Z,79.09
2022-10-27T05:57:56.425Z,78.66
2022-10-27T06:01:01.513Z,77.98
2022-10-27T06:04:07.079Z,77.63
2022-10-27T06:07:12.150Z,77.47
2022-10-27T06:10:17.952Z,77.43
2022-10-27T06:13:25.672Z,77.32
2022-10-27T06:16:35.474Z,77.76
2022-10-27T06:19:40.244Z,77.71
2022-10-27T06:22:46.411Z,76.61
2022-10-27T06:25:51.971Z,76.37
2022-10-27T06:28:58.543Z,75.44
2022-10-27T06:32:03.351Z,74.68
2022-10-27T06:35:09.755Z,74.32
2022-10-27T06:38:08.788Z,74.37
2022-10-27T06:41:02.314Z,73.60
2022-10-27T06:44:07.467Z,73.29
2022-10-27T06:47:13.130Z,72.04
2022-10-27T06:50:20.803Z,73.20
2022-10-27T06:53:27.591Z,71.63
2022-10-27T06:56:33.970Z,70.48
2022-10-27T06:59:40.113Z,71.10
2022-10-27T07:02:46.381Z,70.61
2022-10-27T07:05:53.064Z,69.66
2022-10-27T07:08:59.709Z,70.03
2022-10-27T07:12:08.276Z,69.75
2022-10-27T07:15:14.897Z,69.41
2022-10-27T07:18:22.383Z,69.51
2022-10-27T07:21:28.265Z,68.54
2022-10-27T07:24:34.899Z,68.72
2022-10-27T07:27:40.804Z,68.12
2022-10-27T07:30:55.223Z,68.24
2022-10-27T07:34:01.311Z,67.98
2022-10-27T07:37:07.413Z,68.68
2022-10-27T07:40:13.287Z,67.27
2022-10-27T07:43:20.770Z,66.77
2022-10-27T07:46:27.424Z,66.50
2022-10-27T07:49:33.642Z,65.35
2022-10-27T07:52:39.621Z,65.37
2022-10-27T07:55:48.704Z,66.74
2022-10-27T07:58:54.674Z,66.94
2022-10-27T08:02:01.285Z,66.67
2022-10-27T08:05:06.717Z,66.37
2022-10-27T08:08:15.946Z,65.64
2022-10-27T08:11:22.022Z,66.14
2022-10-27T08:14:27.959Z,65.90
2022-10-27T08:17:36.527Z,66.08
2022-10-27T08:20:43.523Z,66.47
2022-10-27T08:23:42.054Z,66.57
2022-10-27T08:26:48.869Z,65.69
2022-10-27T08:29:54.515Z,65.43
2022-10-27T08:33:00.529Z,64.95
2022-10-27T08:36:09.531Z,66.74
2022-10-27T08:39:14.821Z,66.00
2022-10-27T08:43:08.840Z,66.90
2022-10-27T08:46:22.361Z,65.94
2022-10-27T08:49:49.964Z,65.13
2022-10-27T08:53:04.702Z,65.36
2022-10-27T08:56:12.478Z,65.30
2022-10-27T08:59:18.164Z,65.34
2022-10-27T09:02:51.877Z,66.03
2022-10-27T09:06:37.453Z,64.58
2022-10-27T09:10:03.561Z,65.52
2022-10-27T09:13:32.241Z,66.39
2022-10-27T09:16:58.433Z,64.00
2022-10-27T09:20:15.103Z,64.44
2022-10-27T09:23:27.687Z,64.14
2022-10-27T09:26:37.810Z,63.73
2022-10-27T09:29:37.174Z,64.00
2022-10-27T09:32:45.485Z,63.48
2022-10-27T09:35:51.409Z,64.13
2022-10-27T09:38:56.796Z,63.82
2022-10-27T09:42:03.596Z,63.24
2022-10-27T09:45:13.079Z,62.39
2022-10-27T09:48:21.515Z,62.84
2022-10-27T09:51:44.921Z,64.49
2022-10-27T09:54:55.234Z,66.09
2022-10-27T09:58:00.444Z,66.44
2022-10-27T10:01:15.168Z,66.80
2022-10-27T10:04:23.640Z,67.39
2022-10-27T10:07:54.283Z,65.86
2022-10-27T10:11:21.968Z,66.01
2022-10-27T10:14:31.628Z,66.49
2022-10-27T10:17:41.363Z,66.31
2022-10-27T10:20:51.417Z,66.43
2022-10-27T10:24:05.449Z,66.35
2022-10-27T10:27:13.141Z,66.59
2022-10-27T10:30:21.907Z,66.24
2022-10-27T10:33:29.759Z,65.97
2022-10-27T10:36:41.819Z,65.48
2022-10-27T10:39:51.561Z,65.51
2022-10-27T10:43:02.326Z,65.82
2022-10-27T10:46:07.244Z,64.87
2022-10-27T10:49:13.980Z,64.44
2022-10-27T10:52:32.796Z,64.44
2022-10-27T10:55:44.475Z,64.01
2022-10-27T10:58:44.180Z,64.05
2022-10-27T11:01:59.604Z,64.19
2022-10-27T11:05:05.368Z,64.82
2022-10-27T11:08:11.795Z,63.56
2022-10-27T11:11:18.868Z,64.65
2022-10-27T11:14:29.722Z,64.35
2022-10-27T11:17:35.348Z,64.22
2022-10-27T11:20:48.322Z,65.10
2022-10-27T11:24:01.370Z,65.21
2022-10-27T11:27:28.059Z,65.08
2022-10-27T11:30:37.172Z,66.65
2022-10-27T11:33:54.002Z,66.73
2022-10-27T11:37:15.046Z,65.71
2022-10-27T11:40:30.589Z,64.19
2022-10-27T11:44:04.698Z,64.38
2022-10-27T11:47:34.002Z,64.38
2022-10-27T11:50:52.453Z,64.67
2022-10-27T11:54:00.494Z,65.32
2022-10-27T11:57:21.720Z,65.57
2022-10-27T12:00:28.903Z,65.28
2022-10-27T12:04:04.039Z,65.18
2022-10-27T12:07:30.677Z,65.88
2022-10-27T12:10:42.971Z,66.32
2022-10-27T12:14:00.250Z,66.13
2022-10-27T12:17:36.324Z,66.33
2022-10-27T12:20:53.903Z,66.71
2022-10-27T12:24:16.014Z,67.11
2022-10-27T12:27:29.079Z,66.84
2022-10-27T12:30:38.336Z,66.75
2022-10-27T12:34:01.857Z,66.82
2022-10-27T12:37:22.392Z,67.05
2022-10-27T12:40:34.681Z,66.76
2022-10-27T12:44:06.332Z,66.88
2022-10-27T12:47:18.268Z,66.37
2022-10-27T12:50:41.226Z,67.42
2022-10-27T12:54:10.037Z,66.52
2022-10-27T12:57:50.370Z,66.07
2022-10-27T13:01:12.369Z,66.46
2022-10-27T13:04:45.532Z,66.46
2022-10-27T13:08:18.238Z,66.82
2022-10-27T13:12:03.831Z,67.25
2022-10-27T13:15:20.499Z,67.79
2022-10-27T13:19:05.492Z,68.23
2022-10-27T13:22:29.254Z,68.37
2022-10-27T13:25:56.361Z,68.23
2022-10-27T13:29:15.951Z,68.73
2022-10-27T13:32:41.729Z,68.80
2022-10-27T13:35:50.228Z,69.41
2022-10-27T13:38:55.624Z,69.63
2022-10-27T13:45:53.905Z,68.96
2022-10-27T13:49:02.222Z,69.19
2022-10-27T13:52:22.562Z,69.34
2022-10-27T13:55:47.319Z,69.88
2022-10-27T13:59:14.024Z,70.22
2022-10-27T14:02:21.988Z,70.31
2022-10-27T14:05:49.974Z,70.01
2022-10-27T14:09:06.028Z,69.99
2022-10-27T14:12:19.630Z,70.05
2022-10-27T14:15:45.154Z,70.29
2022-10-27T14:18:52.992Z,70.41
2022-10-27T14:22:05.389Z,71.13
2022-10-27T14:25:33.427Z,71.19
2022-10-27T14:28:39.272Z,71.06
2022-10-27T14:31:38.599Z,70.73
2022-10-27T14:34:34.072Z,71.07
2022-10-27T14:37:30.763Z,70.64
2022-10-27T14:40:28.525Z,70.71
2022-10-27T14:43:38.073Z,70.74
2022-10-27T14:46:46.131Z,70.94
2022-10-27T14:50:01.837Z,71.02
2022-10-27T14:53:10.507Z,71.40
2022-10-27T14:56:32.572Z,71.90
2022-10-27T14:59:40.231Z,71.92
2022-10-27T15:02:47.057Z,72.39
2022-10-27T15:05:55.555Z,72.78
2022-10-27T15:09:00.407Z,73.05
2022-10-27T15:12:05.474Z,73.54
2022-10-27T15:15:15.002Z,73.81
2022-10-27T15:18:45.600Z,73.56
2022-10-27T15:21:50.969Z,73.62
2022-10-27T15:24:56.561Z,74.55
2022-10-27T15:28:02.588Z,74.56
2022-10-27T15:31:09.875Z,74.77
2022-10-27T15:34:16.924Z,74.75
2022-10-27T15:37:33.697Z,74.60
2022-10-27T15:40:55.387Z,74.66
2022-10-27T15:44:05.721Z,74.66
2022-10-27T15:47:11.854Z,74.74
2022-10-27T15:50:17.976Z,74.82
2022-10-27T15:53:36.518Z,74.22
2022-10-27T15:56:54.878Z,73.96
2022-10-27T16:00:05.261Z,73.95
2022-10-27T16:03:13.838Z,74.39
2022-10-27T16:06:40.100Z,74.40
2022-10-27T16:09:53.986Z,74.33
2022-10-27T16:13:01.378Z,74.12
2022-10-27T16:16:07.071Z,74.75
2022-10-27T16:19:13.901Z,74.82
2022-10-27T16:22:20.485Z,74.60
2022-10-27T16:25:30.612Z,74.46
2022-10-27T16:28:42.428Z,73.75
2022-10-27T16:31:47.522Z,74.48
2022-10-27T16:34:53.479Z,75.41
2022-10-27T16:37:59.906Z,75.99
2022-10-27T16:41:06.817Z,76.19
2022-10-27T16:44:11.840Z,76.88
2022-10-27T16:47:18.575Z,77.37
2022-10-27T16:50:24.920Z,77.43
2022-10-27T16:53:31.443Z,77.44
2022-10-27T16:56:37.546Z,77.13
2022-10-27T16:59:43.840Z,77.24
2022-10-27T17:02:49.706Z,77.65
2022-10-27T17:05:55.206Z,77.06
2022-10-27T17:09:01.636Z,76.35
2022-10-27T17:12:07.835Z,75.98
2022-10-27T17:15:13.519Z,76.38
2022-10-27T17:18:21.230Z,76.93
2022-10-27T17:21:26.153Z,77.20
2022-10-27T17:24:32.586Z,78.00
2022-10-27T17:27:39.024Z,78.05
2022-10-27T17:30:44.557Z,77.97
2022-10-27T17:33:50.590Z,78.11
2022-10-27T17:36:56.856Z,78.69
2022-10-27T17:40:05.326Z,78.67
2022-10-27T17:43:11.201Z,79.23
2022-10-27T17:46:22.836Z,79.43
2022-10-27T17:49:29.284Z,79.47
2022-10-27T17:52:35.473Z,79.36
2022-10-27T17:55:41.771Z,79.41
2022-10-27T17:58:43.605Z,79.58
2022-10-27T18:01:50.347Z,79.52
2022-10-27T18:04:56.587Z,79.81
2022-10-27T18:08:01.920Z,80.07
2022-10-27T18:11:08.601Z,79.80
2022-10-27T18:14:17.796Z,80.22
2022-10-27T18:17:24.334Z,80.37
2022-10-27T18:20:30.158Z,80.31
2022-10-27T18:23:35.334Z,80.21
2022-10-27T18:26:44.673Z,79.67
2022-10-27T18:29:50.463Z,78.87
2022-10-27T18:32:58.265Z,78.89
2022-10-27T18:36:06.049Z,77.90
2022-10-27T18:39:13.388Z,77.55
2022-10-27T18:42:19.351Z,77.57
2022-10-27T18:45:25.149Z,77.53
2022-10-27T18:48:32.080Z,77.60
2022-10-27T18:51:37.821Z,77.73
2022-10-27T18:54:44.002Z,77.72
2022-10-27T18:57:51.089Z,78.20
2022-10-27T19:00:57.178Z,78.48
2022-10-27T19:04:05.286Z,78.46
2022-10-27T19:07:11.307Z,78.66
2022-10-27T19:10:19.242Z,78.70
2022-10-27T19:13:19.597Z,78.97
2022-10-27T19:16:10.369Z,78.90
2022-10-27T19:19:03.259Z,78.71
2022-10-27T19:22:09.911Z,78.87
2022-10-27T19:25:16.111Z,78.96
2022-10-27T19:28:21.536Z,78.95
2022-10-27T19:31:30.651Z,79.06
2022-10-27T19:34:37.171Z,79.44
2022-10-27T19:37:43.190Z,79.22
2022-10-27T19:40:49.879Z,79.47
2022-10-27T19:43:49.840Z,79.41
2022-10-27T19:46:44.485Z,79.42
2022-10-27T19:49:50.778Z,79.52
2022-10-27T19:52:57.016Z,79.27
2022-10-27T19:56:05.098Z,79.37
2022-10-27T19:59:11.302Z,79.56
2022-10-27T20:02:16.850Z,79.37
2022-10-27T20:05:21.944Z,79.19
2022-10-27T20:08:28.049Z,80.16
2022-10-27T20:11:36.816Z,80.40
2022-10-27T20:14:42.779Z,80.53
2022-10-27T20:17:48.744Z,80.67
2022-10-27T20:20:55.067Z,81.19
2022-10-27T20:24:00.992Z,81.25
2022-10-27T20:27:06.213Z,82.02
2022-10-27T20:30:11.085Z,81.41
2022-10-27T20:33:17.322Z,80.80
2022-10-27T20:36:26.113Z,81.41
2022-10-27T20:39:30.763Z,81.42
2022-10-27T20:42:36.634Z,81.00
2022-10-27T20:45:42.527Z,81.14
2022-10-27T20:48:49.068Z,80.67
2022-10-27T20:51:55.418Z,80.37
2022-10-27T20:55:01.492Z,81.00
2022-10-27T20:58:06.515Z,81.07
2022-10-27T21:01:50.136Z,81.06
2022-10-27T21:04:56.682Z,81.14
2022-10-27T21:08:02.253Z,80.59
2022-10-27T21:11:02.625Z,79.86
2022-10-27T21:13:55.977Z,79.76
2022-10-27T21:17:07.588Z,80.25
2022-10-27T21:20:13.376Z,79.63
2022-10-27T21:23:18.825Z,80.22
2022-10-27T21:26:25.323Z,80.65
2022-10-27T21:29:30.993Z,80.00
2022-10-27T21:32:37.656Z,79.66
2022-10-27T21:35:43.133Z,78.42
2022-10-27T21:38:57.562Z,79.52
2022-10-27T21:42:04.751Z,80.30
2022-10-27T21:45:10.217Z,80.54
2022-10-27T21:48:15.484Z,80.48
2022-10-27T21:51:20.828Z,80.63
2022-10-27T21:54:27.598Z,80.46
2022-10-27T21:57:33.482Z,79.92
2022-10-27T22:00:39.684Z,79.71
2022-10-27T22:03:46.345Z,79.61
2022-10-27T22:06:52.325Z,79.70
2022-10-27T22:09:58.443Z,79.25
2022-10-27T22:13:05.246Z,78.90
2022-10-27T22:16:20.843Z,79.03
2022-10-27T22:19:28.511Z,78.12
2022-10-27T22:22:34.516Z,77.61
2022-10-27T22:25:42.304Z,79.04
2022-10-27T22:28:49.056Z,78.82
2022-10-27T22:31:54.730Z,78.89
2022-10-27T22:35:00.633Z,79.43
2022-10-27T22:38:07.180Z,79.59
2022-10-27T22:41:22.173Z,79.50
2022-10-27T22:44:28.838Z,79.47
2022-10-27T22:47:35.061Z,79.34
2022-10-27T22:50:40.755Z,79.52
2022-10-27T22:53:47.635Z,79.36
2022-10-27T22:56:55.274Z,79.35
2022-10-27T23:00:01.104Z,79.16
2022-10-27T23:03:07.289Z,78.87
2022-10-27T23:06:13.411Z,78.70
2022-10-27T23:09:31.680Z,78.44
2022-10-27T23:12:37.744Z,78.57
2022-10-27T23:15:43.087Z,78.90
2022-10-27T23:18:50.599Z,78.82
2022-10-27T23:21:57.256Z,79.00
2022-10-27T23:25:03.786Z,79.04
2022-10-27T23:28:09.522Z,78.94
2022-10-27T23:31:16.942Z,78.70
2022-10-27T23:34:23.447Z,79.02
2022-10-27T23:37:29.541Z,79.27
2022-10-27T23:40:35.176Z,79.29
2022-10-27T23:43:41.218Z,79.64
2022-10-27T23:46:46.759Z,80.00
2022-10-27T23:49:52.971Z,79.67
2022-10-27T23:52:52.869Z,79.38
2022-10-27T23:55:59.179Z,80.13
2022-10-27T23:59:05.741Z,80.03
